sensor_id;sensor_type;location;lat;lon;timestamp;pressure;altitude;pressure_sealevel;temperature;humidity
41624;BME280;27319;50.306;18.926;2022-08-19T04:32:48;97774.41;;;21.33;78.57
41624;BME280;27319;50.306;18.926;2022-08-19T04:35:52;97780.91;;;21.44;77.76
41624;BME280;27319;50.306;18.926;2022-08-19T04:38:55;97781.13;;;21.59;77.81
41624;BME280;27319;50.306;18.926;2022-08-19T04:41:56;97791.88;;;21.77;77.99
41624;BME280;27319;50.306;18.926;2022-08-19T04:45:15;97787.53;;;21.81;78.88
41624;BME280;27319;50.306;18.926;2022-08-19T04:48:17;97795.91;;;21.91;77.39
41624;BME280;27319;50.306;18.926;2022-08-19T04:51:26;97793.00;;;21.97;77.37
41624;BME280;27319;50.306;18.926;2022-08-19T04:54:27;97787.16;;;22.10;78.34
41624;BME280;27319;50.306;18.926;2022-08-19T04:57:28;97785.31;;;22.16;77.08
41624;BME280;27319;50.306;18.926;2022-08-19T05:00:29;97790.09;;;22.25;77.10
41624;BME280;27319;50.306;18.926;2022-08-19T05:03:29;97790.84;;;22.37;77.02
41624;BME280;27319;50.306;18.926;2022-08-19T05:06:34;97784.84;;;22.40;76.32
41624;BME280;27319;50.306;18.926;2022-08-19T05:09:35;97787.75;;;22.50;74.22
41624;BME280;27319;50.306;18.926;2022-08-19T05:12:36;97780.66;;;22.54;75.12
41624;BME280;27319;50.306;18.926;2022-08-19T05:15:37;97793.84;;;22.57;75.80
41624;BME280;27319;50.306;18.926;2022-08-19T05:18:40;97793.59;;;22.59;76.34
41624;BME280;27319;50.306;18.926;2022-08-19T05:22:00;97797.03;;;22.71;76.98
41624;BME280;27319;50.306;18.926;2022-08-19T05:25:20;97796.56;;;22.79;75.74
41624;BME280;27319;50.306;18.926;2022-08-19T05:28:21;97797.19;;;22.86;75.06
41624;BME280;27319;50.306;18.926;2022-08-19T05:31:22;97797.84;;;22.93;74.67
41624;BME280;27319;50.306;18.926;2022-08-19T05:34:24;97809.41;;;23.00;75.63
41624;BME280;27319;50.306;18.926;2022-08-19T05:37:26;97801.75;;;23.02;75.27
41624;BME280;27319;50.306;18.926;2022-08-19T05:40:27;97807.28;;;23.07;74.76
41624;BME280;27319;50.306;18.926;2022-08-19T05:43:29;97817.28;;;23.18;75.09
41624;BME280;27319;50.306;18.926;2022-08-19T05:46:29;97812.97;;;23.22;73.22
41624;BME280;27319;50.306;18.926;2022-08-19T05:49:32;97814.06;;;23.26;73.62
41624;BME280;27319;50.306;18.926;2022-08-19T05:52:33;97808.66;;;23.31;74.35
41624;BME280;27319;50.306;18.926;2022-08-19T05:55:36;97809.81;;;23.35;72.59
41624;BME280;27319;50.306;18.926;2022-08-19T05:58:38;97816.44;;;23.39;71.96
41624;BME280;27319;50.306;18.926;2022-08-19T06:01:59;97812.84;;;23.38;73.10
41624;BME280;27319;50.306;18.926;2022-08-19T06:06:00;97817.53;;;23.43;73.20
41624;BME280;27319;50.306;18.926;2022-08-19T06:10:00;97817.03;;;23.46;73.24
41624;BME280;27319;50.306;18.926;2022-08-19T06:14:02;97818.72;;;23.52;71.35
41624;BME280;27319;50.306;18.926;2022-08-19T06:18:01;97818.53;;;23.58;72.64
41624;BME280;27319;50.306;18.926;2022-08-19T06:22:02;97826.75;;;23.63;72.22
41624;BME280;27319;50.306;18.926;2022-08-19T06:26:02;97825.72;;;23.69;74.12
41624;BME280;27319;50.306;18.926;2022-08-19T06:30:03;97821.41;;;23.78;72.92
41624;BME280;27319;50.306;18.926;2022-08-19T06:34:05;97833.53;;;23.82;73.32
41624;BME280;27319;50.306;18.926;2022-08-19T06:38:04;97836.06;;;23.89;72.58
41624;BME280;27319;50.306;18.926;2022-08-19T06:42:05;97844.91;;;24.01;72.16
41624;BME280;27319;50.306;18.926;2022-08-19T06:46:09;97852.09;;;24.02;72.00
41624;BME280;27319;50.306;18.926;2022-08-19T06:50:06;97847.50;;;24.12;71.78
41624;BME280;27319;50.306;18.926;2022-08-19T06:54:06;97866.94;;;24.11;69.33
41624;BME280;27319;50.306;18.926;2022-08-19T06:58:07;97867.78;;;24.11;68.98
41624;BME280;27319;50.306;18.926;2022-08-19T07:02:10;97871.06;;;24.13;69.81
41624;BME280;27319;50.306;18.926;2022-08-19T07:06:15;97860.41;;;24.17;69.40
41624;BME280;27319;50.306;18.926;2022-08-19T07:10:14;97874.13;;;24.17;71.14
41624;BME280;27319;50.306;18.926;2022-08-19T07:14:15;97881.28;;;24.23;67.54
41624;BME280;27319;50.306;18.926;2022-08-19T07:18:18;97892.84;;;24.30;68.56
41624;BME280;27319;50.306;18.926;2022-08-19T07:22:19;97898.44;;;24.40;68.05
41624;BME280;27319;50.306;18.926;2022-08-19T07:26:26;97896.22;;;24.37;70.52
41624;BME280;27319;50.306;18.926;2022-08-19T07:30:26;97905.31;;;24.42;69.63
41624;BME280;27319;50.306;18.926;2022-08-19T07:34:28;97910.25;;;24.40;70.07
41624;BME280;27319;50.306;18.926;2022-08-19T07:38:27;97910.31;;;24.55;67.25
41624;BME280;27319;50.306;18.926;2022-08-19T07:42:27;97915.69;;;24.72;68.85
41624;BME280;27319;50.306;18.926;2022-08-19T07:46:30;97923.94;;;24.72;69.32
41624;BME280;27319;50.306;18.926;2022-08-19T07:50:29;97920.69;;;24.85;67.46
41624;BME280;27319;50.306;18.926;2022-08-19T07:54:30;97921.03;;;24.93;67.85
41624;BME280;27319;50.306;18.926;2022-08-19T07:58:36;97921.88;;;25.04;67.04
41624;BME280;27319;50.306;18.926;2022-08-19T08:02:30;97911.50;;;25.11;67.46
41624;BME280;27319;50.306;18.926;2022-08-19T08:06:31;97928.06;;;25.26;68.62
41624;BME280;27319;50.306;18.926;2022-08-19T08:10:41;97931.97;;;25.40;69.84
41624;BME280;27319;50.306;18.926;2022-08-19T08:14:45;97928.72;;;25.58;67.28
41624;BME280;27319;50.306;18.926;2022-08-19T08:18:42;97929.31;;;25.75;65.32
41624;BME280;27319;50.306;18.926;2022-08-19T08:22:43;97932.41;;;25.98;67.10
41624;BME280;27319;50.306;18.926;2022-08-19T08:26:42;97932.13;;;26.35;62.25
41624;BME280;27319;50.306;18.926;2022-08-19T08:30:42;97927.75;;;26.64;63.16
41624;BME280;27319;50.306;18.926;2022-08-19T08:34:43;97921.38;;;26.83;63.02
41624;BME280;27319;50.306;18.926;2022-08-19T08:38:43;97910.59;;;26.97;63.19
41624;BME280;27319;50.306;18.926;2022-08-19T08:42:47;97913.84;;;27.14;63.23
41624;BME280;27319;50.306;18.926;2022-08-19T08:50:13;97912.88;;;27.48;60.24
41624;BME280;27319;50.306;18.926;2022-08-19T08:54:10;97907.00;;;27.65;57.81
41624;BME280;27319;50.306;18.926;2022-08-19T09:01:32;97895.72;;;28.05;59.36
41624;BME280;27319;50.306;18.926;2022-08-19T09:05:39;97889.41;;;27.99;57.49
41624;BME280;27319;50.306;18.926;2022-08-19T09:09:16;97895.81;;;27.90;57.92
41624;BME280;27319;50.306;18.926;2022-08-19T09:17:40;97917.88;;;27.95;56.69
41624;BME280;27319;50.306;18.926;2022-08-19T09:21:40;97908.41;;;28.06;58.98
41624;BME280;27319;50.306;18.926;2022-08-19T09:25:41;97911.03;;;28.20;58.12
41624;BME280;27319;50.306;18.926;2022-08-19T09:29:41;97913.63;;;28.46;56.33
41624;BME280;27319;50.306;18.926;2022-08-19T09:33:41;97922.44;;;28.48;58.64
41624;BME280;27319;50.306;18.926;2022-08-19T09:37:42;97913.53;;;28.56;56.77
41624;BME280;27319;50.306;18.926;2022-08-19T09:41:43;97907.88;;;28.65;57.06
41624;BME280;27319;50.306;18.926;2022-08-19T09:45:43;97913.16;;;28.90;56.23
41624;BME280;27319;50.306;18.926;2022-08-19T09:49:44;97922.28;;;28.91;55.57
41624;BME280;27319;50.306;18.926;2022-08-19T09:53:45;97920.84;;;28.98;55.34
41624;BME280;27319;50.306;18.926;2022-08-19T09:57:45;97924.78;;;28.87;55.05
41624;BME280;27319;50.306;18.926;2022-08-19T10:01:45;97923.84;;;29.02;55.26
41624;BME280;27319;50.306;18.926;2022-08-19T10:05:46;97918.53;;;29.05;54.75
41624;BME280;27319;50.306;18.926;2022-08-19T10:09:47;97910.94;;;29.39;54.63
41624;BME280;27319;50.306;18.926;2022-08-19T10:13:47;97916.88;;;29.93;52.90
41624;BME280;27319;50.306;18.926;2022-08-19T10:17:48;97925.00;;;30.40;53.73
41624;BME280;27319;50.306;18.926;2022-08-19T10:21:48;97916.50;;;30.82;51.50
41624;BME280;27319;50.306;18.926;2022-08-19T10:25:49;97911.91;;;30.91;46.83
41624;BME280;27319;50.306;18.926;2022-08-19T10:29:49;97913.13;;;31.12;48.41
41624;BME280;27319;50.306;18.926;2022-08-19T10:33:50;97910.91;;;31.41;49.76
41624;BME280;27319;50.306;18.926;2022-08-19T10:37:50;97905.00;;;31.70;49.61
41624;BME280;27319;50.306;18.926;2022-08-19T10:41:51;97909.31;;;32.11;47.29
41624;BME280;27319;50.306;18.926;2022-08-19T10:45:52;97896.53;;;31.88;44.36
41624;BME280;27319;50.306;18.926;2022-08-19T10:49:53;97899.28;;;31.66;49.31
41624;BME280;27319;50.306;18.926;2022-08-19T10:53:51;97889.44;;;31.47;46.85
41624;BME280;27319;50.306;18.926;2022-08-19T10:57:52;97890.03;;;31.57;45.93
41624;BME280;27319;50.306;18.926;2022-08-19T11:01:53;97889.41;;;31.60;45.48
41624;BME280;27319;50.306;18.926;2022-08-19T11:05:59;97882.56;;;31.44;47.13
41624;BME280;27319;50.306;18.926;2022-08-19T11:09:59;97867.44;;;31.10;46.80
41624;BME280;27319;50.306;18.926;2022-08-19T11:14:00;97875.97;;;31.27;46.58
41624;BME280;27319;50.306;18.926;2022-08-19T11:18:00;97881.81;;;31.25;46.89
41624;BME280;27319;50.306;18.926;2022-08-19T11:22:01;97880.19;;;31.38;48.73
41624;BME280;27319;50.306;18.926;2022-08-19T11:26:01;97878.91;;;31.57;48.14
41624;BME280;27319;50.306;18.926;2022-08-19T11:30:02;97874.41;;;31.75;48.05
41624;BME280;27319;50.306;18.926;2022-08-19T11:34:03;97876.50;;;32.57;45.18
41624;BME280;27319;50.306;18.926;2022-08-19T11:38:03;97870.31;;;33.21;45.61
41624;BME280;27319;50.306;18.926;2022-08-19T11:42:04;97876.31;;;33.45;41.07
41624;BME280;27319;50.306;18.926;2022-08-19T11:46:06;97879.00;;;33.84;43.21
41624;BME280;27319;50.306;18.926;2022-08-19T11:50:05;97890.16;;;34.18;39.66
41624;BME280;27319;50.306;18.926;2022-08-19T11:54:06;97887.53;;;34.47;40.15
41624;BME280;27319;50.306;18.926;2022-08-19T11:58:06;97878.38;;;34.38;39.00
41624;BME280;27319;50.306;18.926;2022-08-19T12:02:07;97885.09;;;33.86;40.80
41624;BME280;27319;50.306;18.926;2022-08-19T12:06:08;97879.34;;;33.27;41.90
41624;BME280;27319;50.306;18.926;2022-08-19T12:10:08;97873.63;;;32.93;42.43
41624;BME280;27319;50.306;18.926;2022-08-19T12:14:10;97874.63;;;32.66;42.50
41624;BME280;27319;50.306;18.926;2022-08-19T12:18:09;97874.94;;;32.21;43.91
41624;BME280;27319;50.306;18.926;2022-08-19T12:22:10;97869.69;;;32.19;44.72
41624;BME280;27319;50.306;18.926;2022-08-19T12:26:11;97860.63;;;32.27;41.45
41624;BME280;27319;50.306;18.926;2022-08-19T12:30:11;97853.09;;;32.50;43.14
41624;BME280;27319;50.306;18.926;2022-08-19T12:34:11;97849.38;;;32.54;44.77
41624;BME280;27319;50.306;18.926;2022-08-19T12:38:12;97847.50;;;32.41;44.46
41624;BME280;27319;50.306;18.926;2022-08-19T12:42:13;97835.56;;;32.41;45.70
41624;BME280;27319;50.306;18.926;2022-08-19T12:46:13;97839.78;;;32.38;44.69
41624;BME280;27319;50.306;18.926;2022-08-19T12:50:17;97828.19;;;32.67;41.79
41624;BME280;27319;50.306;18.926;2022-08-19T12:54:17;97831.41;;;32.82;40.11
41624;BME280;27319;50.306;18.926;2022-08-19T12:58:18;97833.72;;;32.97;43.78
41624;BME280;27319;50.306;18.926;2022-08-19T13:02:18;97842.91;;;33.45;41.60
41624;BME280;27319;50.306;18.926;2022-08-19T13:06:19;97835.06;;;33.64;39.45
41624;BME280;27319;50.306;18.926;2022-08-19T13:10:20;97839.84;;;33.81;43.77
41624;BME280;27319;50.306;18.926;2022-08-19T13:14:20;97831.66;;;33.93;41.22
41624;BME280;27319;50.306;18.926;2022-08-19T13:18:20;97832.47;;;34.10;41.42
41624;BME280;27319;50.306;18.926;2022-08-19T13:22:21;97825.91;;;34.23;41.03
41624;BME280;27319;50.306;18.926;2022-08-19T13:26:22;97833.44;;;34.48;39.62
41624;BME280;27319;50.306;18.926;2022-08-19T13:30:23;97837.34;;;35.02;38.51
41624;BME280;27319;50.306;18.926;2022-08-19T13:34:38;97828.69;;;35.32;37.68
41624;BME280;27319;50.306;18.926;2022-08-19T13:38:39;97837.47;;;35.51;43.56
41624;BME280;27319;50.306;18.926;2022-08-19T13:42:39;97828.09;;;35.76;36.23
41624;BME280;27319;50.306;18.926;2022-08-19T13:46:40;97830.13;;;35.88;38.74
41624;BME280;27319;50.306;18.926;2022-08-19T13:50:41;97823.19;;;35.73;36.66
41624;BME280;27319;50.306;18.926;2022-08-19T13:54:41;97819.53;;;35.52;37.84
41624;BME280;27319;50.306;18.926;2022-08-19T13:58:41;97808.06;;;35.45;39.57
41624;BME280;27319;50.306;18.926;2022-08-19T14:02:42;97814.41;;;35.34;36.38
41624;BME280;27319;50.306;18.926;2022-08-19T14:06:42;97809.78;;;35.09;33.62
41624;BME280;27319;50.306;18.926;2022-08-19T14:10:43;97805.69;;;35.35;37.09
41624;BME280;27319;50.306;18.926;2022-08-19T14:14:43;97810.19;;;35.19;37.89
41624;BME280;27319;50.306;18.926;2022-08-19T14:18:44;97803.63;;;35.15;41.48
41624;BME280;27319;50.306;18.926;2022-08-19T14:22:45;97801.28;;;34.97;39.57
41624;BME280;27319;50.306;18.926;2022-08-19T14:26:45;97790.19;;;35.17;37.51
41624;BME280;27319;50.306;18.926;2022-08-19T14:30:45;97798.59;;;35.09;39.06
41624;BME280;27319;50.306;18.926;2022-08-19T14:34:46;97792.34;;;35.12;37.32
41624;BME280;27319;50.306;18.926;2022-08-19T14:38:47;97785.25;;;34.85;38.28
41624;BME280;27319;50.306;18.926;2022-08-19T14:42:47;97781.84;;;34.71;39.12
41624;BME280;27319;50.306;18.926;2022-08-19T14:46:48;97776.47;;;34.66;40.36
41624;BME280;27319;50.306;18.926;2022-08-19T14:50:48;97760.28;;;34.51;40.24
41624;BME280;27319;50.306;18.926;2022-08-19T14:54:49;97752.63;;;34.40;39.86
41624;BME280;27319;50.306;18.926;2022-08-19T14:58:53;97742.28;;;34.23;39.51
41624;BME280;27319;50.306;18.926;2022-08-19T15:02:53;97745.44;;;34.22;40.75
41624;BME280;27319;50.306;18.926;2022-08-19T15:06:54;97742.28;;;34.23;39.53
41624;BME280;27319;50.306;18.926;2022-08-19T15:10:55;97740.41;;;33.98;41.47
41624;BME280;27319;50.306;18.926;2022-08-19T15:14:55;97739.75;;;33.76;42.15
41624;BME280;27319;50.306;18.926;2022-08-19T15:18:56;97746.47;;;33.58;42.72
41624;BME280;27319;50.306;18.926;2022-08-19T15:22:56;97732.22;;;33.42;41.64
41624;BME280;27319;50.306;18.926;2022-08-19T15:26:56;97743.97;;;33.22;42.92
41624;BME280;27319;50.306;18.926;2022-08-19T15:30:57;97718.19;;;32.83;43.69
41624;BME280;27319;50.306;18.926;2022-08-19T15:34:57;97706.97;;;32.57;44.07
41624;BME280;27319;50.306;18.926;2022-08-19T15:38:58;97691.88;;;32.33;44.85
41624;BME280;27319;50.306;18.926;2022-08-19T15:42:59;97700.31;;;31.97;46.54
41624;BME280;27319;50.306;18.926;2022-08-19T15:46:59;97707.72;;;31.80;46.97
41624;BME280;27319;50.306;18.926;2022-08-19T15:51:00;97702.91;;;31.50;48.10
41624;BME280;27319;50.306;18.926;2022-08-19T15:55:00;97714.00;;;31.14;49.28
41624;BME280;27319;50.306;18.926;2022-08-19T15:59:01;97724.22;;;30.65;50.99
41624;BME280;27319;50.306;18.926;2022-08-19T16:03:00;97727.09;;;30.73;50.14
41624;BME280;27319;50.306;18.926;2022-08-19T16:06:59;97721.97;;;30.53;51.94
41624;BME280;27319;50.306;18.926;2022-08-19T16:10:59;97730.47;;;30.16;52.44
41624;BME280;27319;50.306;18.926;2022-08-19T16:15:00;97735.31;;;30.06;53.75
41624;BME280;27319;50.306;18.926;2022-08-19T16:19:07;97719.47;;;29.79;53.98
41624;BME280;27319;50.306;18.926;2022-08-19T16:23:02;97730.34;;;29.76;54.11
41624;BME280;27319;50.306;18.926;2022-08-19T16:27:02;97747.78;;;29.76;54.69
41624;BME280;27319;50.306;18.926;2022-08-19T16:31:02;97754.28;;;29.67;55.12
41624;BME280;27319;50.306;18.926;2022-08-19T16:35:04;97738.19;;;29.50;55.04
41624;BME280;27319;50.306;18.926;2022-08-19T16:39:03;97728.19;;;29.17;55.18
41624;BME280;27319;50.306;18.926;2022-08-19T16:43:04;97725.97;;;29.19;56.13
41624;BME280;27319;50.306;18.926;2022-08-19T16:47:05;97734.72;;;29.08;55.45
41624;BME280;27319;50.306;18.926;2022-08-19T16:51:05;97741.88;;;29.09;55.05
41624;BME280;27319;50.306;18.926;2022-08-19T16:55:06;97731.66;;;28.86;56.00
41624;BME280;27319;50.306;18.926;2022-08-19T16:59:06;97707.56;;;28.91;54.36
41624;BME280;27319;50.306;18.926;2022-08-19T17:03:07;97709.50;;;28.91;54.57
41624;BME280;27319;50.306;18.926;2022-08-19T17:07:08;97735.84;;;29.25;51.03
41624;BME280;27319;50.306;18.926;2022-08-19T17:11:08;97768.31;;;28.97;53.78
41624;BME280;27319;50.306;18.926;2022-08-19T17:15:09;97808.00;;;28.82;55.16
41624;BME280;27319;50.306;18.926;2022-08-19T17:19:12;97824.50;;;28.63;55.75
41624;BME280;27319;50.306;18.926;2022-08-19T17:23:13;97805.50;;;28.57;55.25
41624;BME280;27319;50.306;18.926;2022-08-19T17:27:13;97834.22;;;27.99;57.89
41624;BME280;27319;50.306;18.926;2022-08-19T17:31:14;97870.22;;;27.36;60.50
41624;BME280;27319;50.306;18.926;2022-08-19T17:35:14;97898.97;;;27.10;61.96
41624;BME280;27319;50.306;18.926;2022-08-19T17:39:15;97924.97;;;26.79;61.67
41624;BME280;27319;50.306;18.926;2022-08-19T17:43:16;97961.84;;;26.18;63.71
41624;BME280;27319;50.306;18.926;2022-08-19T17:47:16;97976.53;;;25.47;67.41
41624;BME280;27319;50.306;18.926;2022-08-19T17:51:20;97968.56;;;25.04;69.86
41624;BME280;27319;50.306;18.926;2022-08-19T17:55:20;97963.56;;;24.54;73.14
41624;BME280;27319;50.306;18.926;2022-08-19T17:59:20;98049.72;;;24.53;74.06
41624;BME280;27319;50.306;18.926;2022-08-19T18:03:21;98094.19;;;24.55;76.12
41624;BME280;27319;50.306;18.926;2022-08-19T18:07:21;98066.78;;;24.29;79.41
41624;BME280;27319;50.306;18.926;2022-08-19T18:11:22;98036.19;;;23.89;78.98
41624;BME280;27319;50.306;18.926;2022-08-19T18:15:23;97991.00;;;23.70;80.90
41624;BME280;27319;50.306;18.926;2022-08-19T18:19:24;97966.69;;;23.52;82.03
41624;BME280;27319;50.306;18.926;2022-08-19T18:23:24;97973.03;;;23.57;80.93
41624;BME280;27319;50.306;18.926;2022-08-19T18:27:25;98001.38;;;23.46;83.17
41624;BME280;27319;50.306;18.926;2022-08-19T18:31:27;98007.22;;;23.50;83.92
41624;BME280;27319;50.306;18.926;2022-08-19T18:35:29;98032.03;;;23.65;83.65
41624;BME280;27319;50.306;18.926;2022-08-19T18:39:28;98027.72;;;23.69;82.54
41624;BME280;27319;50.306;18.926;2022-08-19T18:43:27;98053.56;;;23.35;84.95
41624;BME280;27319;50.306;18.926;2022-08-19T18:47:26;98085.06;;;23.54;84.31
41624;BME280;27319;50.306;18.926;2022-08-19T18:51:25;98076.84;;;23.54;83.85
41624;BME280;27319;50.306;18.926;2022-08-19T18:55:26;98029.81;;;23.62;84.10
41624;BME280;27319;50.306;18.926;2022-08-19T18:59:27;97986.06;;;23.24;84.93
41624;BME280;27319;50.306;18.926;2022-08-19T19:03:27;98007.31;;;23.38;83.29
41624;BME280;27319;50.306;18.926;2022-08-19T19:07:28;98047.97;;;23.08;85.64
41624;BME280;27319;50.306;18.926;2022-08-19T19:11:29;98077.03;;;22.93;86.95
41624;BME280;27319;50.306;18.926;2022-08-19T19:15:29;98051.81;;;22.91;87.08
41624;BME280;27319;50.306;18.926;2022-08-19T19:19:29;98056.72;;;23.43;84.24
41624;BME280;27319;50.306;18.926;2022-08-19T19:23:30;98058.41;;;23.11;86.05
41624;BME280;27319;50.306;18.926;2022-08-19T19:27:30;98048.81;;;23.47;83.30
41624;BME280;27319;50.306;18.926;2022-08-19T19:31:31;98059.91;;;23.19;84.95
41624;BME280;27319;50.306;18.926;2022-08-19T19:35:32;98059.34;;;23.17;84.24
41624;BME280;27319;50.306;18.926;2022-08-19T19:39:32;98050.16;;;23.06;85.44
41624;BME280;27319;50.306;18.926;2022-08-19T19:43:33;98075.03;;;22.72;88.54
41624;BME280;27319;50.306;18.926;2022-08-19T19:47:33;98060.28;;;22.73;88.78
41624;BME280;27319;50.306;18.926;2022-08-19T19:51:34;98047.69;;;22.72;88.45
41624;BME280;27319;50.306;18.926;2022-08-19T19:55:34;98037.38;;;22.79;87.69
41624;BME280;27319;50.306;18.926;2022-08-19T19:59:35;98033.06;;;22.83;87.67
41624;BME280;27319;50.306;18.926;2022-08-19T20:03:35;98022.56;;;22.75;87.84
41624;BME280;27319;50.306;18.926;2022-08-19T20:07:36;98019.66;;;22.65;88.94
41624;BME280;27319;50.306;18.926;2022-08-19T20:11:49;98009.00;;;22.85;87.47
41624;BME280;27319;50.306;18.926;2022-08-19T20:15:48;98002.53;;;22.91;87.08
41624;BME280;27319;50.306;18.926;2022-08-19T20:19:48;97982.13;;;22.98;86.15
41624;BME280;27319;50.306;18.926;2022-08-19T20:23:49;97978.28;;;22.99;86.05
41624;BME280;27319;50.306;18.926;2022-08-19T20:27:50;97970.69;;;22.85;87.51
41624;BME280;27319;50.306;18.926;2022-08-19T20:31:50;97967.31;;;22.78;87.49
41624;BME280;27319;50.306;18.926;2022-08-19T20:35:51;97960.97;;;22.56;90.37
41624;BME280;27319;50.306;18.926;2022-08-19T20:39:51;97951.53;;;22.47;90.73
41624;BME280;27319;50.306;18.926;2022-08-19T20:43:55;97955.59;;;22.44;90.06
41624;BME280;27319;50.306;18.926;2022-08-19T20:47:55;97950.69;;;22.46;90.37
41624;BME280;27319;50.306;18.926;2022-08-19T20:51:55;97946.72;;;22.54;90.41
41624;BME280;27319;50.306;18.926;2022-08-19T20:55:56;97935.25;;;22.40;91.55
41624;BME280;27319;50.306;18.926;2022-08-19T20:59:56;97936.03;;;22.36;92.59
41624;BME280;27319;50.306;18.926;2022-08-19T21:03:57;97929.91;;;22.29;92.62
41624;BME280;27319;50.306;18.926;2022-08-19T21:07:58;97933.75;;;22.33;93.16
41624;BME280;27319;50.306;18.926;2022-08-19T21:11:58;97974.75;;;22.44;92.16
41624;BME280;27319;50.306;18.926;2022-08-19T21:15:59;97966.66;;;22.71;89.76
41624;BME280;27319;50.306;18.926;2022-08-19T21:19:59;97979.34;;;22.77;90.25
41624;BME280;27319;50.306;18.926;2022-08-19T21:24:00;97988.00;;;22.69;90.48
41624;BME280;27319;50.306;18.926;2022-08-19T21:28:00;97991.56;;;22.53;92.56
41624;BME280;27319;50.306;18.926;2022-08-19T21:32:02;97999.03;;;22.57;91.71
41624;BME280;27319;50.306;18.926;2022-08-19T21:36:02;98003.50;;;22.47;93.47
41624;BME280;27319;50.306;18.926;2022-08-19T21:40:03;98012.81;;;22.46;92.33
41624;BME280;27319;50.306;18.926;2022-08-19T21:44:03;98020.41;;;22.60;92.24
41624;BME280;27319;50.306;18.926;2022-08-19T21:48:04;98026.53;;;22.67;92.09
41624;BME280;27319;50.306;18.926;2022-08-19T21:52:04;98027.63;;;22.66;91.84
41624;BME280;27319;50.306;18.926;2022-08-19T21:56:05;98021.56;;;22.81;89.99
41624;BME280;27319;50.306;18.926;2022-08-19T22:00:07;98033.25;;;22.93;89.17
41624;BME280;27319;50.306;18.926;2022-08-19T22:04:06;98009.69;;;22.75;88.96
41624;BME280;27319;50.306;18.926;2022-08-19T22:08:06;98012.03;;;22.67;88.66
41624;BME280;27319;50.306;18.926;2022-08-19T22:12:08;98003.84;;;22.50;90.93
41624;BME280;27319;50.306;18.926;2022-08-19T22:16:08;97975.22;;;22.25;91.35
41624;BME280;27319;50.306;18.926;2022-08-19T22:20:10;97972.56;;;22.30;90.45
41624;BME280;27319;50.306;18.926;2022-08-19T22:24:09;97968.91;;;22.24;91.12
41624;BME280;27319;50.306;18.926;2022-08-19T22:28:11;97987.63;;;22.16;91.80
41624;BME280;27319;50.306;18.926;2022-08-19T22:32:10;97971.88;;;22.06;92.74
41624;BME280;27319;50.306;18.926;2022-08-19T22:36:10;97972.22;;;22.10;91.72
41624;BME280;27319;50.306;18.926;2022-08-19T22:40:11;97950.59;;;22.08;91.91
41624;BME280;27319;50.306;18.926;2022-08-19T22:44:11;97932.44;;;21.86;92.82
41624;BME280;27319;50.306;18.926;2022-08-19T22:48:13;97941.22;;;21.88;94.37
41624;BME280;27319;50.306;18.926;2022-08-19T22:52:14;97939.81;;;22.02;92.86
41624;BME280;27319;50.306;18.926;2022-08-19T22:56:14;97937.75;;;21.92;92.61
41624;BME280;27319;50.306;18.926;2022-08-19T23:00:19;97932.28;;;21.92;93.00
41624;BME280;27319;50.306;18.926;2022-08-19T23:04:19;97944.22;;;21.86;93.22
41624;BME280;27319;50.306;18.926;2022-08-19T23:08:23;97936.34;;;21.90;93.58
41624;BME280;27319;50.306;18.926;2022-08-19T23:12:25;97944.13;;;21.98;93.50
41624;BME280;27319;50.306;18.926;2022-08-19T23:16:24;97964.56;;;21.95;93.50
41624;BME280;27319;50.306;18.926;2022-08-19T23:20:26;97976.25;;;21.91;92.95
41624;BME280;27319;50.306;18.926;2022-08-19T23:24:26;97982.72;;;22.01;92.35
41624;BME280;27319;50.306;18.926;2022-08-19T23:28:26;97974.19;;;21.81;94.35
41624;BME280;27319;50.306;18.926;2022-08-19T23:32:25;97975.59;;;21.84;93.05
41624;BME280;27319;50.306;18.926;2022-08-19T23:36:25;97973.84;;;21.78;94.33
41624;BME280;27319;50.306;18.926;2022-08-19T23:40:26;97984.66;;;21.73;94.76
41624;BME280;27319;50.306;18.926;2022-08-19T23:44:27;97983.59;;;21.74;95.22
41624;BME280;27319;50.306;18.926;2022-08-19T23:48:28;97977.66;;;21.93;92.75
41624;BME280;27319;50.306;18.926;2022-08-19T23:52:28;97966.34;;;21.73;93.48
41624;BME280;27319;50.306;18.926;2022-08-19T23:56:28;97952.00;;;21.66;94.45
